createdAt,value
2022-07-31T00:00:25.692Z,7.32
2022-07-31T00:02:52.831Z,6.85
2022-07-31T00:05:20.095Z,7.60
2022-07-31T00:07:47.402Z,7.85
2022-07-31T00:10:14.450Z,6.72
2022-07-31T00:12:41.459Z,7.40
2022-07-31T00:15:13.452Z,6.57
2022-07-31T00:17:43.460Z,7.22
2022-07-31T00:20:15.686Z,5.53
2022-07-31T00:22:47.153Z,7.15
2022-07-31T00:25:16.552Z,6.07
2022-07-31T00:27:43.786Z,7.25
2022-07-31T00:30:13.244Z,6.95
2022-07-31T00:32:42.196Z,5.90
2022-07-31T00:35:16.298Z,6.32
2022-07-31T00:37:44.752Z,6.70
2022-07-31T00:40:15.625Z,5.45
2022-07-31T00:42:43.176Z,6.55
2022-07-31T00:45:13.626Z,5.75
2022-07-31T00:47:41.476Z,6.10
2022-07-31T00:50:09.289Z,6.60
2022-07-31T00:52:36.388Z,5.80
2022-07-31T00:55:03.903Z,6.38
2022-07-31T00:57:30.935Z,5.40
2022-07-31T00:59:58.180Z,7.40
2022-07-31T01:02:25.226Z,5.85
2022-07-31T01:04:52.781Z,5.63
2022-07-31T01:07:20.486Z,6.05
2022-07-31T01:09:48.698Z,5.65
2022-07-31T01:12:22.748Z,5.68
2022-07-31T01:14:57.310Z,5.53
2022-07-31T01:17:26.719Z,6.43
2022-07-31T01:19:54.996Z,5.75
2022-07-31T01:22:40.742Z,6.72
2022-07-31T01:25:33.239Z,7.22
2022-07-31T01:28:10.425Z,6.10
2022-07-31T01:31:25.545Z,5.72
2022-07-31T01:34:30.114Z,5.63
2022-07-31T01:37:10.862Z,5.55
2022-07-31T01:39:45.110Z,6.22
2022-07-31T01:42:16.613Z,5.63
2022-07-31T01:44:47.951Z,6.15
2022-07-31T01:47:20.177Z,5.75
2022-07-31T01:49:50.399Z,5.80
2022-07-31T01:52:20.585Z,6.88
2022-07-31T01:54:49.722Z,7.57
2022-07-31T01:57:18.833Z,5.85
2022-07-31T01:59:56.333Z,5.60
2022-07-31T02:02:42.629Z,5.90
2022-07-31T02:05:12.737Z,6.07
2022-07-31T02:07:41.841Z,6.47
2022-07-31T02:10:16.629Z,6.35
2022-07-31T02:12:45.682Z,6.15
2022-07-31T02:15:14.775Z,7.10
2022-07-31T02:17:46.455Z,8.38
2022-07-31T02:20:24.025Z,9.98
2022-07-31T02:22:55.666Z,6.43
2022-07-31T02:25:22.984Z,6.95
2022-07-31T02:27:57.192Z,7.28
2022-07-31T02:30:38.326Z,6.63
2022-07-31T02:33:11.632Z,7.45
2022-07-31T02:35:44.304Z,7.22
2022-07-31T02:41:01.894Z,6.60
2022-07-31T02:43:35.062Z,6.28
2022-07-31T02:46:13.510Z,8.98
2022-07-31T02:48:41.686Z,6.90
2022-07-31T02:51:10.656Z,6.72
2022-07-31T02:53:39.273Z,7.22
2022-07-31T02:56:11.484Z,7.65
2022-07-31T02:58:44.713Z,7.70
2022-07-31T03:01:22.626Z,6.50
2022-07-31T03:03:50.368Z,8.60
2022-07-31T03:06:18.321Z,6.97
2022-07-31T03:08:45.562Z,7.65
2022-07-31T03:11:17.554Z,6.95
2022-07-31T03:13:48.939Z,6.78
2022-07-31T03:16:17.430Z,9.32
2022-07-31T03:18:46.313Z,7.47
2022-07-31T03:21:15.441Z,6.85
2022-07-31T03:23:42.855Z,7.40
2022-07-31T03:26:16.635Z,7.28
2022-07-31T03:28:43.876Z,7.13
2022-07-31T03:31:11.055Z,8.23
2022-07-31T03:33:38.088Z,6.20
2022-07-31T03:36:05.369Z,6.88
2022-07-31T03:38:38.351Z,7.75
2022-07-31T03:41:15.001Z,7.25
2022-07-31T03:43:47.841Z,6.90
2022-07-31T03:46:20.739Z,6.95
2022-07-31T03:48:51.992Z,6.78
2022-07-31T03:51:19.781Z,6.35
2022-07-31T03:53:48.109Z,8.77
2022-07-31T03:56:34.815Z,7.82
2022-07-31T03:59:03.921Z,7.97
2022-07-31T04:01:58.111Z,6.85
2022-07-31T04:07:01.273Z,6.43
2022-07-31T04:09:29.344Z,7.00
2022-07-31T04:11:58.162Z,7.95
2022-07-31T04:14:25.295Z,7.65
2022-07-31T04:16:52.235Z,7.13
2022-07-31T04:19:20.629Z,7.80
2022-07-31T04:21:50.348Z,6.43
2022-07-31T04:24:18.472Z,6.85
2022-07-31T04:27:12.686Z,6.60
2022-07-31T04:29:45.609Z,7.35
2022-07-31T04:32:12.859Z,8.88
2022-07-31T04:34:48.132Z,7.30
2022-07-31T04:37:17.478Z,6.85
2022-07-31T04:39:44.582Z,7.78
2022-07-31T04:42:12.430Z,7.25
2022-07-31T04:44:39.664Z,7.43
2022-07-31T04:47:07.651Z,7.57
2022-07-31T04:49:40.683Z,6.03
2022-07-31T04:52:10.285Z,8.30
2022-07-31T04:54:39.070Z,5.70
2022-07-31T04:57:12.602Z,6.72
2022-07-31T05:00:00.598Z,7.75
2022-07-31T05:02:26.683Z,8.23
2022-07-31T05:04:57.134Z,7.85
2022-07-31T05:07:30.204Z,6.05
2022-07-31T05:09:58.818Z,8.20
2022-07-31T05:12:27.043Z,7.68
2022-07-31T05:14:54.787Z,7.20
2022-07-31T05:17:21.998Z,7.20
2022-07-31T05:20:01.942Z,6.32
2022-07-31T05:22:42.737Z,7.70
2022-07-31T05:25:31.573Z,6.70
2022-07-31T05:27:58.870Z,6.28
2022-07-31T05:30:29.886Z,7.72
2022-07-31T05:32:58.671Z,9.82
2022-07-31T05:35:26.230Z,7.05
2022-07-31T05:37:53.719Z,7.35
2022-07-31T05:40:33.599Z,8.38
2022-07-31T05:43:39.586Z,7.90
2022-07-31T05:46:17.424Z,5.93
2022-07-31T05:48:45.754Z,6.88
2022-07-31T05:51:14.253Z,6.38
2022-07-31T05:53:44.358Z,7.25
2022-07-31T05:56:31.833Z,8.68
2022-07-31T05:59:00.246Z,6.47
2022-07-31T06:01:29.152Z,7.28
2022-07-31T06:03:56.349Z,5.88
2022-07-31T06:06:30.538Z,6.65
2022-07-31T06:09:03.396Z,5.85
2022-07-31T06:11:35.414Z,6.75
2022-07-31T06:14:03.607Z,8.52
2022-07-31T06:16:50.323Z,6.18
2022-07-31T06:19:18.760Z,5.85
2022-07-31T06:21:54.061Z,6.80
2022-07-31T06:24:22.521Z,7.07
2022-07-31T06:26:51.157Z,6.53
2022-07-31T06:29:18.358Z,7.93
2022-07-31T06:31:45.758Z,5.75
2022-07-31T06:34:17.115Z,6.72
2022-07-31T06:36:48.250Z,5.40
2022-07-31T06:39:20.626Z,6.72
2022-07-31T06:42:06.477Z,5.70
2022-07-31T06:44:35.051Z,5.00
2022-07-31T06:47:32.044Z,5.13
2022-07-31T06:50:11.989Z,5.13
2022-07-31T06:52:45.498Z,6.55
2022-07-31T06:55:12.796Z,5.65
2022-07-31T06:57:41.220Z,5.15
2022-07-31T07:00:19.709Z,5.18
2022-07-31T07:02:50.643Z,5.85
2022-07-31T07:05:18.685Z,5.32
2022-07-31T07:07:50.138Z,6.22
2022-07-31T07:10:17.292Z,5.63
2022-07-31T07:12:59.506Z,5.97
2022-07-31T07:15:29.113Z,4.75
2022-07-31T07:17:56.242Z,5.30
2022-07-31T07:20:35.473Z,4.22
2022-07-31T07:23:02.542Z,4.40
2022-07-31T07:25:41.062Z,5.63
2022-07-31T07:28:15.199Z,4.50
2022-07-31T07:30:56.885Z,4.30
2022-07-31T07:33:39.830Z,5.07
2022-07-31T07:36:23.097Z,5.45
2022-07-31T07:39:04.163Z,4.07
2022-07-31T07:41:33.774Z,4.03
2022-07-31T07:44:03.360Z,5.03
2022-07-31T07:46:31.148Z,4.00
2022-07-31T07:49:01.925Z,3.67
2022-07-31T07:51:58.743Z,4.68
2022-07-31T07:54:40.713Z,4.32
2022-07-31T07:57:26.991Z,5.00
2022-07-31T07:59:54.355Z,3.83
2022-07-31T08:02:41.372Z,5.65
2022-07-31T08:05:09.682Z,3.10
2022-07-31T08:07:41.884Z,3.58
2022-07-31T08:10:28.431Z,3.65
2022-07-31T08:13:19.739Z,4.88
2022-07-31T08:16:13.073Z,5.10
2022-07-31T08:18:45.668Z,4.10
2022-07-31T08:21:13.447Z,3.92
2022-07-31T08:23:40.770Z,4.43
2022-07-31T08:26:10.093Z,4.10
2022-07-31T08:28:39.312Z,4.63
2022-07-31T08:31:06.527Z,3.55
2022-07-31T08:33:43.905Z,4.70
2022-07-31T08:36:11.168Z,6.05
2022-07-31T08:38:39.293Z,3.92
2022-07-31T08:41:42.685Z,3.58
2022-07-31T08:44:10.671Z,3.80
2022-07-31T08:46:39.334Z,4.20
2022-07-31T08:49:09.942Z,4.97
2022-07-31T08:54:24.195Z,3.42
2022-07-31T08:56:53.006Z,3.38
2022-07-31T08:59:22.141Z,9.38
2022-07-31T09:01:49.500Z,3.65
2022-07-31T09:04:16.957Z,2.90
2022-07-31T09:06:45.163Z,3.72
2022-07-31T09:09:12.235Z,3.05
2022-07-31T09:11:54.849Z,3.13
2022-07-31T09:14:47.415Z,3.42
2022-07-31T09:17:16.794Z,4.85
2022-07-31T09:19:53.513Z,3.50
2022-07-31T09:22:31.136Z,3.10
2022-07-31T09:25:13.260Z,4.72
2022-07-31T09:27:42.080Z,3.13
2022-07-31T09:30:10.590Z,3.67
2022-07-31T09:33:17.768Z,3.65
2022-07-31T09:36:15.165Z,3.70
2022-07-31T09:38:46.530Z,2.50
2022-07-31T09:42:00.055Z,2.60
2022-07-31T09:44:38.807Z,2.42
2022-07-31T09:47:08.427Z,3.38
2022-07-31T09:49:36.047Z,3.42
2022-07-31T09:52:03.586Z,2.65
2022-07-31T09:54:31.585Z,4.13
2022-07-31T09:56:59.230Z,2.60
2022-07-31T09:59:33.601Z,4.03
2022-07-31T10:02:02.656Z,4.10
2022-07-31T10:04:29.937Z,3.33
2022-07-31T10:06:57.309Z,2.55
2022-07-31T10:09:25.462Z,2.65
2022-07-31T10:12:17.279Z,5.38
2022-07-31T10:14:47.218Z,4.13
2022-07-31T10:17:17.950Z,3.22
2022-07-31T10:19:54.112Z,3.38
2022-07-31T10:22:49.543Z,3.13
2022-07-31T10:25:30.539Z,3.17
2022-07-31T10:27:59.549Z,3.83
2022-07-31T10:30:30.123Z,2.78
2022-07-31T10:32:59.826Z,2.40
2022-07-31T10:35:27.491Z,2.83
2022-07-31T10:38:20.686Z,2.58
2022-07-31T10:41:17.702Z,3.58
2022-07-31T10:43:47.625Z,3.35
2022-07-31T10:46:37.681Z,3.28
2022-07-31T10:49:46.512Z,2.55
2022-07-31T10:52:35.537Z,2.20
2022-07-31T10:55:23.471Z,2.03
2022-07-31T10:58:11.424Z,3.13
2022-07-31T11:00:53.582Z,3.67
2022-07-31T11:03:22.740Z,3.05
2022-07-31T11:06:18.673Z,2.55
2022-07-31T11:08:57.544Z,3.03
2022-07-31T11:11:43.540Z,2.80
2022-07-31T11:14:46.350Z,3.28
2022-07-31T11:18:21.917Z,5.35
2022-07-31T11:20:32.455Z,3.60
2022-07-31T11:23:05.859Z,4.75
2022-07-31T11:25:35.823Z,3.13
2022-07-31T11:28:24.962Z,2.83
2022-07-31T11:30:52.276Z,2.60
2022-07-31T11:33:42.157Z,3.85
2022-07-31T11:36:27.293Z,4.20
2022-07-31T11:38:58.657Z,3.30
2022-07-31T11:41:41.054Z,4.22
2022-07-31T11:46:39.543Z,2.92
2022-07-31T11:49:07.213Z,2.83
2022-07-31T11:51:34.515Z,2.30
2022-07-31T11:54:01.602Z,2.47
2022-07-31T11:56:28.896Z,3.67
2022-07-31T11:58:57.815Z,2.88
2022-07-31T12:01:29.498Z,1.95
2022-07-31T12:04:07.526Z,2.22
2022-07-31T12:06:37.332Z,2.80
2022-07-31T12:09:04.755Z,2.40
2022-07-31T12:11:31.919Z,4.15
2022-07-31T12:13:59.580Z,3.90
2022-07-31T12:16:26.794Z,1.80
2022-07-31T12:19:01.067Z,2.55
2022-07-31T12:21:36.134Z,3.15
2022-07-31T12:24:12.775Z,2.38
2022-07-31T12:26:49.306Z,1.75
2022-07-31T12:29:16.482Z,2.63
2022-07-31T12:31:55.645Z,2.25
2022-07-31T12:34:29.669Z,2.30
2022-07-31T12:37:04.101Z,3.30
2022-07-31T12:42:30.281Z,2.08
2022-07-31T12:45:19.962Z,2.88
2022-07-31T12:47:51.393Z,3.33
2022-07-31T12:50:24.820Z,4.60
2022-07-31T12:52:52.430Z,2.42
2022-07-31T12:55:19.706Z,2.47
2022-07-31T12:57:51.665Z,3.65
2022-07-31T13:00:23.696Z,2.67
2022-07-31T13:02:56.711Z,2.10
2022-07-31T13:05:24.586Z,3.20
2022-07-31T13:07:51.772Z,3.50
2022-07-31T13:10:21.878Z,3.58
2022-07-31T13:12:51.246Z,2.72
2022-07-31T13:15:20.832Z,3.60
2022-07-31T13:17:52.390Z,2.20
2022-07-31T13:20:20.171Z,3.17
2022-07-31T13:22:47.450Z,2.08
2022-07-31T13:25:14.723Z,2.05
2022-07-31T13:27:41.902Z,3.75
2022-07-31T13:30:10.245Z,2.60
2022-07-31T13:32:37.606Z,1.40
2022-07-31T13:35:26.282Z,1.70
2022-07-31T13:37:53.954Z,3.00
2022-07-31T13:40:41.960Z,4.22
2022-07-31T13:43:09.074Z,2.15
2022-07-31T13:45:36.145Z,2.30
2022-07-31T13:48:08.680Z,2.08
2022-07-31T13:50:42.628Z,1.63
2022-07-31T13:53:10.720Z,2.20
2022-07-31T13:55:38.092Z,1.33
2022-07-31T13:58:05.274Z,1.83
2022-07-31T14:00:32.455Z,3.53
2022-07-31T14:03:02.560Z,3.53
2022-07-31T14:05:29.540Z,1.95
2022-07-31T14:08:29.802Z,1.70
2022-07-31T14:10:49.946Z,2.85
2022-07-31T14:13:18.686Z,2.63
2022-07-31T14:15:49.268Z,1.63
2022-07-31T14:18:16.318Z,2.33
2022-07-31T14:20:43.491Z,1.92
2022-07-31T14:23:10.598Z,1.70
2022-07-31T14:25:38.939Z,1.92
2022-07-31T14:28:07.190Z,2.38
2022-07-31T14:30:34.767Z,1.70
2022-07-31T14:33:02.227Z,1.92
2022-07-31T14:35:33.710Z,2.28
2022-07-31T14:38:04.567Z,2.15
2022-07-31T14:40:31.909Z,1.33
2022-07-31T14:42:59.041Z,1.30
2022-07-31T14:45:26.045Z,1.55
2022-07-31T14:47:55.247Z,1.10
2022-07-31T14:50:23.469Z,2.40
2022-07-31T14:52:50.582Z,1.35
2022-07-31T14:55:17.894Z,1.50
2022-07-31T14:57:45.282Z,2.00
2022-07-31T15:00:13.375Z,1.17
2022-07-31T15:02:44.707Z,2.28
2022-07-31T15:06:37.653Z,1.63
2022-07-31T15:08:03.828Z,1.70
2022-07-31T15:10:31.354Z,1.48
2022-07-31T15:12:58.317Z,1.52
2022-07-31T15:15:25.555Z,1.90
2022-07-31T15:17:56.127Z,1.20
2022-07-31T15:20:32.622Z,2.58
2022-07-31T15:23:00.412Z,1.10
2022-07-31T15:25:29.309Z,0.80
2022-07-31T15:27:57.424Z,3.45
2022-07-31T15:30:24.624Z,0.90
2022-07-31T15:32:52.819Z,1.13
2022-07-31T15:35:20.112Z,1.20
2022-07-31T15:37:47.227Z,1.10
2022-07-31T15:40:16.260Z,1.58
2022-07-31T15:42:46.692Z,1.35
2022-07-31T15:45:16.602Z,1.20
2022-07-31T15:47:45.112Z,1.65
2022-07-31T15:50:17.665Z,1.20
2022-07-31T15:52:47.671Z,3.60
2022-07-31T15:55:15.615Z,1.83
2022-07-31T15:57:43.531Z,1.85
2022-07-31T16:00:14.662Z,1.17
2022-07-31T16:02:42.832Z,2.17
2022-07-31T16:05:22.056Z,1.15
2022-07-31T16:08:29.513Z,2.60
2022-07-31T16:10:45.535Z,1.13
2022-07-31T16:13:13.832Z,1.30
2022-07-31T16:15:41.047Z,1.30
2022-07-31T16:18:09.212Z,1.23
2022-07-31T16:20:48.584Z,1.15
2022-07-31T16:23:15.623Z,0.90
2022-07-31T16:25:42.543Z,1.05
2022-07-31T16:28:09.587Z,1.30
2022-07-31T16:30:36.688Z,1.05
2022-07-31T16:33:03.855Z,1.23
2022-07-31T16:35:34.015Z,0.70
2022-07-31T16:38:01.230Z,1.10
2022-07-31T16:40:32.191Z,3.60
2022-07-31T16:43:02.161Z,1.05
2022-07-31T16:45:48.942Z,2.05
2022-07-31T16:48:16.025Z,3.17
2022-07-31T16:50:43.160Z,1.58
2022-07-31T16:53:13.566Z,1.17
2022-07-31T16:56:01.842Z,1.15
2022-07-31T16:58:31.365Z,1.00
2022-07-31T17:00:58.528Z,1.42
2022-07-31T17:03:58.573Z,2.17
2022-07-31T17:06:12.653Z,2.30
2022-07-31T17:08:39.696Z,1.27
2022-07-31T17:11:06.645Z,0.98
2022-07-31T17:13:33.804Z,3.05
2022-07-31T17:16:03.459Z,1.20
2022-07-31T17:18:30.863Z,1.20
2022-07-31T17:20:58.508Z,2.03
2022-07-31T17:23:43.261Z,0.93
2022-07-31T17:26:21.558Z,1.15
2022-07-31T17:28:51.281Z,1.00
2022-07-31T17:31:21.173Z,1.23
2022-07-31T17:34:00.451Z,1.17
2022-07-31T17:36:30.400Z,1.80
2022-07-31T17:39:00.746Z,1.45
2022-07-31T17:41:28.095Z,2.35
2022-07-31T17:43:55.393Z,1.13
2022-07-31T17:46:34.687Z,1.55
2022-07-31T17:49:06.952Z,1.23
2022-07-31T17:51:34.578Z,1.48
2022-07-31T17:54:01.769Z,1.08
2022-07-31T17:56:28.955Z,1.65
2022-07-31T17:59:03.741Z,1.20
2022-07-31T18:01:34.553Z,1.77
2022-07-31T18:04:03.350Z,2.60
2022-07-31T18:06:32.900Z,1.58
2022-07-31T18:09:00.364Z,1.15
2022-07-31T18:11:27.692Z,1.35
2022-07-31T18:13:55.538Z,1.00
2022-07-31T18:16:27.812Z,1.50
2022-07-31T18:18:54.872Z,1.88
2022-07-31T18:21:22.039Z,2.10
2022-07-31T18:23:49.115Z,1.73
2022-07-31T18:26:17.506Z,2.72
2022-07-31T18:28:45.007Z,3.65
2022-07-31T18:31:32.050Z,2.15
2022-07-31T18:33:59.239Z,2.40
2022-07-31T18:36:27.169Z,3.13
2022-07-31T18:38:54.276Z,2.33
2022-07-31T18:41:21.283Z,4.03
2022-07-31T18:43:48.334Z,3.13
2022-07-31T18:46:15.733Z,3.70
2022-07-31T18:48:42.798Z,3.10
2022-07-31T18:51:10.886Z,3.65
2022-07-31T18:53:38.079Z,3.00
2022-07-31T18:56:05.188Z,3.33
2022-07-31T18:58:32.366Z,3.25
2022-07-31T19:00:59.537Z,4.20
2022-07-31T19:03:26.701Z,3.33
2022-07-31T19:05:54.836Z,3.25
2022-07-31T19:08:22.265Z,3.22
2022-07-31T19:10:53.314Z,3.95
2022-07-31T19:13:21.413Z,3.13
2022-07-31T19:15:50.315Z,2.90
2022-07-31T19:18:17.784Z,3.25
2022-07-31T19:20:58.953Z,2.35
2022-07-31T19:23:38.417Z,2.05
2022-07-31T19:26:07.820Z,2.10
2022-07-31T19:28:36.834Z,3.00
2022-07-31T19:31:03.802Z,2.22
2022-07-31T19:33:31.038Z,1.25
2022-07-31T19:36:02.203Z,1.30
2022-07-31T19:38:31.832Z,1.30
2022-07-31T19:40:59.231Z,1.10
2022-07-31T19:43:26.779Z,1.15
2022-07-31T19:46:09.634Z,1.08
2022-07-31T19:48:41.273Z,1.83
2022-07-31T19:51:09.328Z,1.15
2022-07-31T19:53:36.464Z,1.35
2022-07-31T19:56:06.232Z,1.42
2022-07-31T19:58:36.599Z,2.65
2022-07-31T20:01:05.314Z,2.15
2022-07-31T20:03:33.170Z,1.70
2022-07-31T20:06:01.486Z,1.73
2022-07-31T20:08:32.813Z,1.55
2022-07-31T20:11:03.440Z,1.45
2022-07-31T20:13:32.568Z,1.40
2022-07-31T20:16:00.698Z,1.55
2022-07-31T20:18:30.060Z,2.15
2022-07-31T20:21:06.963Z,2.00
2022-07-31T20:23:37.333Z,1.38
2022-07-31T20:26:06.243Z,1.52
2022-07-31T20:28:33.330Z,1.30
2022-07-31T20:31:00.409Z,2.13
2022-07-31T20:33:27.558Z,2.25
2022-07-31T20:35:54.528Z,2.55
2022-07-31T20:38:23.881Z,1.77
2022-07-31T20:40:55.656Z,2.05
2022-07-31T20:43:28.263Z,1.30
2022-07-31T20:45:59.847Z,1.67
2022-07-31T20:48:32.755Z,1.75
2022-07-31T20:51:03.639Z,1.95
2022-07-31T20:53:31.757Z,1.20
2022-07-31T20:55:59.271Z,1.30
2022-07-31T20:58:26.782Z,1.65
2022-07-31T21:00:54.579Z,1.30
2022-07-31T21:03:23.859Z,2.92
2022-07-31T21:05:52.605Z,1.20
2022-07-31T21:08:19.745Z,2.45
2022-07-31T21:10:46.976Z,2.30
2022-07-31T21:13:14.277Z,1.48
2022-07-31T21:15:45.067Z,1.98
2022-07-31T21:18:15.932Z,2.22
2022-07-31T21:20:50.779Z,2.53
2022-07-31T21:23:23.787Z,2.58
2022-07-31T21:25:57.168Z,2.22
2022-07-31T21:28:26.461Z,1.92
2022-07-31T21:30:56.383Z,1.95
2022-07-31T21:33:25.440Z,2.60
2022-07-31T21:35:53.086Z,1.30
2022-07-31T21:38:21.099Z,3.20
2022-07-31T21:40:48.559Z,2.45
2022-07-31T21:43:22.197Z,3.90
2022-07-31T21:45:57.934Z,1.70
2022-07-31T21:48:30.986Z,1.75
2022-07-31T21:50:58.953Z,2.38
2022-07-31T21:53:26.668Z,2.53
2022-07-31T21:55:53.637Z,1.40
2022-07-31T21:58:20.754Z,2.13
2022-07-31T22:00:48.144Z,1.98
2022-07-31T22:03:15.252Z,1.70
2022-07-31T22:06:01.670Z,2.30
2022-07-31T22:08:29.116Z,1.77
2022-07-31T22:10:56.113Z,2.45
2022-07-31T22:13:23.112Z,2.15
2022-07-31T22:16:00.290Z,2.15
2022-07-31T22:18:34.338Z,2.65
2022-07-31T22:21:04.710Z,2.13
2022-07-31T22:23:32.365Z,2.88
2022-07-31T22:25:59.969Z,1.95
2022-07-31T22:28:28.105Z,3.80
2022-07-31T22:30:56.521Z,2.20
2022-07-31T22:33:24.432Z,2.55
2022-07-31T22:35:58.418Z,1.63
2022-07-31T22:38:29.188Z,2.50
2022-07-31T22:40:56.408Z,3.05
2022-07-31T22:44:14.158Z,2.28
2022-07-31T22:46:15.168Z,2.47
2022-07-31T22:48:44.305Z,1.40
2022-07-31T22:51:15.252Z,2.28
2022-07-31T22:53:44.916Z,1.85
2022-07-31T22:56:16.420Z,1.83
2022-07-31T22:58:43.533Z,1.77
2022-07-31T23:01:10.583Z,1.85
2022-07-31T23:03:37.808Z,1.70
2022-07-31T23:06:30.823Z,3.05
2022-07-31T23:08:54.639Z,1.63
2022-07-31T23:11:23.263Z,2.35
2022-07-31T23:13:51.156Z,3.75
2022-07-31T23:16:18.318Z,2.15
2022-07-31T23:18:46.623Z,3.00
2022-07-31T23:21:13.757Z,2.95
2022-07-31T23:23:48.766Z,2.30
2022-07-31T23:26:16.413Z,2.83
2022-07-31T23:28:43.395Z,2.03
2022-07-31T23:31:10.309Z,1.90
2022-07-31T23:33:37.494Z,3.25
2022-07-31T23:36:04.883Z,2.45
2022-07-31T23:38:31.929Z,2.22
2022-07-31T23:40:58.882Z,2.67
2022-07-31T23:43:26.804Z,1.75
2022-07-31T23:45:53.908Z,2.10
2022-07-31T23:48:20.946Z,2.72
2022-07-31T23:50:48.050Z,2.50
2022-07-31T23:53:16.523Z,2.63
2022-07-31T23:55:43.998Z,1.85
2022-07-31T23:58:13.288Z,2.45
